sensor_id;sensor_type;location;lat;lon;timestamp;pressure;altitude;pressure_sealevel;temperature;humidity
53647;BME280;39550;52.230;5.194;2023-03-13T00:01:47;99994.38;;;5.68;91.92
53647;BME280;39550;52.230;5.194;2023-03-13T00:04:13;100001.19;;;5.70;91.85
53647;BME280;39550;52.230;5.194;2023-03-13T00:06:39;99995.25;;;5.71;92.19
53647;BME280;39550;52.230;5.194;2023-03-13T00:09:07;99992.69;;;5.70;91.69
53647;BME280;39550;52.230;5.194;2023-03-13T00:11:33;99979.91;;;5.71;91.79
53647;BME280;39550;52.230;5.194;2023-03-13T00:14:00;99977.38;;;5.71;91.23
53647;BME280;39550;52.230;5.194;2023-03-13T00:16:27;99975.69;;;5.73;92.43
53647;BME280;39550;52.230;5.194;2023-03-13T00:18:54;99970.63;;;5.76;92.18
53647;BME280;39550;52.230;5.194;2023-03-13T00:21:22;99968.91;;;5.75;91.67
53647;BME280;39550;52.230;5.194;2023-03-13T00:23:48;99957.81;;;5.73;92.13
53647;BME280;39550;52.230;5.194;2023-03-13T00:26:16;99957.81;;;5.73;91.53
53647;BME280;39550;52.230;5.194;2023-03-13T00:28:42;99950.13;;;5.73;91.85
53647;BME280;39550;52.230;5.194;2023-03-13T00:31:08;99935.63;;;5.72;92.10
53647;BME280;39550;52.230;5.194;2023-03-13T00:33:36;99926.25;;;5.71;92.27
53647;BME280;39550;52.230;5.194;2023-03-13T00:36:04;99916.84;;;5.72;91.98
53647;BME280;39550;52.230;5.194;2023-03-13T00:38:30;99910.91;;;5.73;91.79
53647;BME280;39550;52.230;5.194;2023-03-13T00:41:07;99900.69;;;5.71;92.62
53647;BME280;39550;52.230;5.194;2023-03-13T00:43:33;99899.84;;;5.74;92.16
53647;BME280;39550;52.230;5.194;2023-03-13T00:45:59;99890.44;;;5.71;92.42
53647;BME280;39550;52.230;5.194;2023-03-13T00:48:25;99888.72;;;5.70;92.21
53647;BME280;39550;52.230;5.194;2023-03-13T00:50:50;99871.72;;;5.72;92.20
53647;BME280;39550;52.230;5.194;2023-03-13T00:53:16;99869.19;;;5.74;93.20
53647;BME280;39550;52.230;5.194;2023-03-13T00:56:19;99859.78;;;5.73;92.68
53647;BME280;39550;52.230;5.194;2023-03-13T00:58:47;99859.81;;;5.74;92.99
53647;BME280;39550;52.230;5.194;2023-03-13T01:03:41;99842.78;;;5.73;92.95
53647;BME280;39550;52.230;5.194;2023-03-13T01:06:10;99835.09;;;5.73;92.87
53647;BME280;39550;52.230;5.194;2023-03-13T01:08:36;99833.41;;;5.74;94.09
53647;BME280;39550;52.230;5.194;2023-03-13T01:11:05;99822.34;;;5.76;92.30
53647;BME280;39550;52.230;5.194;2023-03-13T01:13:31;99817.25;;;5.76;92.38
53647;BME280;39550;52.230;5.194;2023-03-13T01:16:04;99824.91;;;5.76;92.56
53647;BME280;39550;52.230;5.194;2023-03-13T01:18:30;99817.25;;;5.76;92.75
53647;BME280;39550;52.230;5.194;2023-03-13T01:20:56;99807.84;;;5.75;92.91
53647;BME280;39550;52.230;5.194;2023-03-13T01:23:21;99798.50;;;5.77;93.50
53647;BME280;39550;52.230;5.194;2023-03-13T01:25:47;99792.53;;;5.77;93.30
53647;BME280;39550;52.230;5.194;2023-03-13T01:28:12;99790.84;;;5.77;93.80
53647;BME280;39550;52.230;5.194;2023-03-13T01:30:37;99767.84;;;5.79;94.03
53647;BME280;39550;52.230;5.194;2023-03-13T01:33:03;99768.69;;;5.78;93.94
53647;BME280;39550;52.230;5.194;2023-03-13T01:35:28;99755.06;;;5.79;93.16
53647;BME280;39550;52.230;5.194;2023-03-13T01:37:53;99761.03;;;5.79;93.54
53647;BME280;39550;52.230;5.194;2023-03-13T01:40:19;99743.13;;;5.79;93.23
53647;BME280;39550;52.230;5.194;2023-03-13T01:42:55;99733.72;;;5.78;92.69
53647;BME280;39550;52.230;5.194;2023-03-13T01:45:53;99733.72;;;5.78;93.23
53647;BME280;39550;52.230;5.194;2023-03-13T01:48:24;99729.50;;;5.80;93.80
53647;BME280;39550;52.230;5.194;2023-03-13T01:50:52;99721.00;;;5.82;94.29
53647;BME280;39550;52.230;5.194;2023-03-13T01:53:18;99716.72;;;5.80;93.59
53647;BME280;39550;52.230;5.194;2023-03-13T01:55:44;99725.25;;;5.83;93.71
53647;BME280;39550;52.230;5.194;2023-03-13T01:58:10;99724.41;;;5.82;94.26
53647;BME280;39550;52.230;5.194;2023-03-13T02:00:36;99713.34;;;5.82;93.15
53647;BME280;39550;52.230;5.194;2023-03-13T02:03:10;99689.47;;;5.83;94.10
53647;BME280;39550;52.230;5.194;2023-03-13T02:05:37;99685.22;;;5.83;94.51
53647;BME280;39550;52.230;5.194;2023-03-13T02:08:10;99679.25;;;5.83;93.69
53647;BME280;39550;52.230;5.194;2023-03-13T02:10:42;99669.88;;;5.83;93.64
53647;BME280;39550;52.230;5.194;2023-03-13T02:13:10;99661.34;;;5.83;94.04
53647;BME280;39550;52.230;5.194;2023-03-13T02:15:39;99657.13;;;5.85;93.71
53647;BME280;39550;52.230;5.194;2023-03-13T02:18:05;99657.13;;;5.85;94.08
53647;BME280;39550;52.230;5.194;2023-03-13T02:20:30;99636.66;;;5.85;94.93
53647;BME280;39550;52.230;5.194;2023-03-13T02:25:46;99633.28;;;5.89;95.29
53647;BME280;39550;52.230;5.194;2023-03-13T02:28:16;99621.31;;;5.86;95.23
53647;BME280;39550;52.230;5.194;2023-03-13T02:30:44;99619.63;;;5.88;94.58
53647;BME280;39550;52.230;5.194;2023-03-13T02:33:13;99611.94;;;5.88;93.93
53647;BME280;39550;52.230;5.194;2023-03-13T02:35:39;99609.44;;;5.90;95.24
53647;BME280;39550;52.230;5.194;2023-03-13T02:38:07;99608.56;;;5.89;94.18
53647;BME280;39550;52.230;5.194;2023-03-13T02:40:37;99606.88;;;5.90;94.17
53647;BME280;39550;52.230;5.194;2023-03-13T02:43:10;99615.41;;;5.92;94.32
53647;BME280;39550;52.230;5.194;2023-03-13T02:45:36;99599.22;;;5.90;94.18
53647;BME280;39550;52.230;5.194;2023-03-13T02:48:01;99590.66;;;5.91;94.98
53647;BME280;39550;52.230;5.194;2023-03-13T02:50:27;99597.50;;;5.92;94.32
53647;BME280;39550;52.230;5.194;2023-03-13T02:52:57;99600.91;;;5.94;94.76
53647;BME280;39550;52.230;5.194;2023-03-13T02:55:37;99594.13;;;5.94;95.61
53647;BME280;39550;52.230;5.194;2023-03-13T02:58:03;99604.34;;;5.96;95.68
53647;BME280;39550;52.230;5.194;2023-03-13T03:00:28;99604.34;;;5.96;94.55
53647;BME280;39550;52.230;5.194;2023-03-13T03:02:54;99589.00;;;5.96;95.06
53647;BME280;39550;52.230;5.194;2023-03-13T03:05:20;99596.72;;;5.97;95.76
53647;BME280;39550;52.230;5.194;2023-03-13T03:07:46;99600.06;;;5.95;95.63
53647;BME280;39550;52.230;5.194;2023-03-13T03:10:12;99603.56;;;5.99;95.79
53647;BME280;39550;52.230;5.194;2023-03-13T03:12:37;99603.56;;;6.00;95.14
53647;BME280;39550;52.230;5.194;2023-03-13T03:15:03;99593.31;;;6.00;96.04
53647;BME280;39550;52.230;5.194;2023-03-13T03:17:29;99584.81;;;6.01;95.98
53647;BME280;39550;52.230;5.194;2023-03-13T03:19:55;99590.78;;;6.02;95.46
53647;BME280;39550;52.230;5.194;2023-03-13T03:22:20;99584.81;;;6.04;96.09
53647;BME280;39550;52.230;5.194;2023-03-13T03:24:45;99568.59;;;6.02;96.33
53647;BME280;39550;52.230;5.194;2023-03-13T03:27:11;99567.75;;;6.03;95.27
53647;BME280;39550;52.230;5.194;2023-03-13T03:29:36;99564.38;;;6.04;95.50
53647;BME280;39550;52.230;5.194;2023-03-13T03:32:01;99564.38;;;6.06;96.03
53647;BME280;39550;52.230;5.194;2023-03-13T03:34:27;99566.94;;;6.07;95.10
53647;BME280;39550;52.230;5.194;2023-03-13T03:36:52;99564.38;;;6.07;95.62
53647;BME280;39550;52.230;5.194;2023-03-13T03:39:17;99564.38;;;6.09;95.33
53647;BME280;39550;52.230;5.194;2023-03-13T03:41:42;99563.53;;;6.05;95.92
53647;BME280;39550;52.230;5.194;2023-03-13T03:44:08;99564.38;;;6.10;96.37
53647;BME280;39550;52.230;5.194;2023-03-13T03:46:33;99561.84;;;6.10;95.99
53647;BME280;39550;52.230;5.194;2023-03-13T03:48:59;99560.16;;;6.09;94.96
53647;BME280;39550;52.230;5.194;2023-03-13T03:51:24;99556.75;;;6.13;96.36
53647;BME280;39550;52.230;5.194;2023-03-13T03:53:49;99553.31;;;6.13;95.66
53647;BME280;39550;52.230;5.194;2023-03-13T03:56:15;99542.25;;;6.12;95.27
53647;BME280;39550;52.230;5.194;2023-03-13T03:58:40;99553.31;;;6.14;95.81
53647;BME280;39550;52.230;5.194;2023-03-13T04:01:05;99532.03;;;6.14;96.72
53647;BME280;39550;52.230;5.194;2023-03-13T04:03:31;99532.03;;;6.14;96.43
53647;BME280;39550;52.230;5.194;2023-03-13T04:05:57;99529.47;;;6.16;95.99
53647;BME280;39550;52.230;5.194;2023-03-13T04:08:22;99534.59;;;6.16;96.11
53647;BME280;39550;52.230;5.194;2023-03-13T04:10:48;99522.63;;;6.14;96.29
53647;BME280;39550;52.230;5.194;2023-03-13T04:13:13;99533.75;;;6.15;95.93
53647;BME280;39550;52.230;5.194;2023-03-13T04:15:39;99534.59;;;6.19;95.97
53647;BME280;39550;52.230;5.194;2023-03-13T04:18:05;99526.91;;;6.19;95.97
53647;BME280;39550;52.230;5.194;2023-03-13T04:20:31;99520.97;;;6.20;95.96
53647;BME280;39550;52.230;5.194;2023-03-13T04:22:56;99531.19;;;6.23;96.88
53647;BME280;39550;52.230;5.194;2023-03-13T04:25:22;99512.44;;;6.21;96.50
53647;BME280;39550;52.230;5.194;2023-03-13T04:27:47;99504.78;;;6.22;96.67
53647;BME280;39550;52.230;5.194;2023-03-13T04:30:13;99509.06;;;6.22;96.92
53647;BME280;39550;52.230;5.194;2023-03-13T04:42:51;99493.72;;;6.28;97.36
53647;BME280;39550;52.230;5.194;2023-03-13T04:45:18;99494.56;;;6.27;96.22
53647;BME280;39550;52.230;5.194;2023-03-13T04:47:45;99489.44;;;6.27;96.33
53647;BME280;39550;52.230;5.194;2023-03-13T04:50:10;99492.03;;;6.30;96.88
53647;BME280;39550;52.230;5.194;2023-03-13T04:52:36;99490.31;;;6.29;96.15
53647;BME280;39550;52.230;5.194;2023-03-13T04:55:01;99495.44;;;6.29;96.77
53647;BME280;39550;52.230;5.194;2023-03-13T04:57:26;99491.16;;;6.29;96.83
53647;BME280;39550;52.230;5.194;2023-03-13T04:59:52;99488.59;;;6.31;96.52
53647;BME280;39550;52.230;5.194;2023-03-13T05:02:17;99487.75;;;6.32;97.18
53647;BME280;39550;52.230;5.194;2023-03-13T05:04:42;99485.19;;;6.32;97.42
53647;BME280;39550;52.230;5.194;2023-03-13T05:07:08;99487.75;;;6.34;97.25
53647;BME280;39550;52.230;5.194;2023-03-13T05:09:33;99484.34;;;6.33;97.03
53647;BME280;39550;52.230;5.194;2023-03-13T05:11:58;99489.47;;;6.35;97.22
53647;BME280;39550;52.230;5.194;2023-03-13T05:14:23;99475.84;;;6.36;97.08
53647;BME280;39550;52.230;5.194;2023-03-13T05:16:49;99469.00;;;6.36;97.55
53647;BME280;39550;52.230;5.194;2023-03-13T05:19:14;99473.28;;;6.36;97.32
53647;BME280;39550;52.230;5.194;2023-03-13T05:21:39;99469.00;;;6.36;97.14
53647;BME280;39550;52.230;5.194;2023-03-13T05:24:05;99464.72;;;6.35;97.14
53647;BME280;39550;52.230;5.194;2023-03-13T05:26:30;99466.44;;;6.36;97.05
53647;BME280;39550;52.230;5.194;2023-03-13T05:28:55;99458.78;;;6.38;97.41
53647;BME280;39550;52.230;5.194;2023-03-13T05:31:21;99448.53;;;6.39;96.86
53647;BME280;39550;52.230;5.194;2023-03-13T05:33:46;99451.09;;;6.41;96.83
53647;BME280;39550;52.230;5.194;2023-03-13T05:36:11;99449.41;;;6.41;97.80
53647;BME280;39550;52.230;5.194;2023-03-13T05:38:37;99451.97;;;6.43;97.58
53647;BME280;39550;52.230;5.194;2023-03-13T05:41:02;99450.25;;;6.43;97.71
53647;BME280;39550;52.230;5.194;2023-03-13T05:43:27;99451.09;;;6.42;97.06
53647;BME280;39550;52.230;5.194;2023-03-13T05:45:53;99440.03;;;6.40;97.53
53647;BME280;39550;52.230;5.194;2023-03-13T05:48:18;99454.53;;;6.44;97.18
53647;BME280;39550;52.230;5.194;2023-03-13T05:50:43;99447.69;;;6.46;97.99
53647;BME280;39550;52.230;5.194;2023-03-13T05:53:09;99440.88;;;6.48;97.19
53647;BME280;39550;52.230;5.194;2023-03-13T05:55:34;99446.84;;;6.46;97.74
53647;BME280;39550;52.230;5.194;2023-03-13T05:57:59;99440.88;;;6.48;97.55
53647;BME280;39550;52.230;5.194;2023-03-13T06:00:25;99432.34;;;6.46;97.57
53647;BME280;39550;52.230;5.194;2023-03-13T06:02:50;99440.88;;;6.47;97.00
53647;BME280;39550;52.230;5.194;2023-03-13T06:05:16;99426.38;;;6.44;97.45
53647;BME280;39550;52.230;5.194;2023-03-13T06:07:41;99428.94;;;6.47;97.06
53647;BME280;39550;52.230;5.194;2023-03-13T06:10:07;99417.84;;;6.47;97.31
53647;BME280;39550;52.230;5.194;2023-03-13T06:12:32;99421.25;;;6.49;96.95
53647;BME280;39550;52.230;5.194;2023-03-13T06:14:58;99417.00;;;6.50;97.46
53647;BME280;39550;52.230;5.194;2023-03-13T06:17:23;99417.00;;;6.50;97.34
53647;BME280;39550;52.230;5.194;2023-03-13T06:19:49;99418.69;;;6.51;97.84
53647;BME280;39550;52.230;5.194;2023-03-13T06:22:16;99417.00;;;6.50;97.72
53647;BME280;39550;52.230;5.194;2023-03-13T06:24:41;99428.94;;;6.51;96.92
53647;BME280;39550;52.230;5.194;2023-03-13T06:27:08;99423.81;;;6.51;97.38
53647;BME280;39550;52.230;5.194;2023-03-13T06:29:34;99420.41;;;6.55;96.74
53647;BME280;39550;52.230;5.194;2023-03-13T06:31:59;99420.41;;;6.55;97.25
53647;BME280;39550;52.230;5.194;2023-03-13T06:34:24;99447.72;;;6.56;97.54
53647;BME280;39550;52.230;5.194;2023-03-13T06:36:50;99430.69;;;6.58;96.82
53647;BME280;39550;52.230;5.194;2023-03-13T06:39:15;99424.69;;;6.59;97.37
53647;BME280;39550;52.230;5.194;2023-03-13T06:41:40;99429.81;;;6.57;97.42
53647;BME280;39550;52.230;5.194;2023-03-13T06:44:06;99418.72;;;6.60;96.97
53647;BME280;39550;52.230;5.194;2023-03-13T06:46:31;99420.44;;;6.61;96.54
53647;BME280;39550;52.230;5.194;2023-03-13T06:48:57;99457.09;;;6.63;96.54
53647;BME280;39550;52.230;5.194;2023-03-13T06:51:23;99429.81;;;6.63;97.04
53647;BME280;39550;52.230;5.194;2023-03-13T06:53:50;99451.16;;;6.64;97.35
53647;BME280;39550;52.230;5.194;2023-03-13T06:56:16;99432.38;;;6.65;96.77
53647;BME280;39550;52.230;5.194;2023-03-13T06:58:42;99452.88;;;6.65;97.59
53647;BME280;39550;52.230;5.194;2023-03-13T07:01:11;99457.97;;;6.65;97.39
53647;BME280;39550;52.230;5.194;2023-03-13T07:03:38;99453.72;;;6.70;97.91
53647;BME280;39550;52.230;5.194;2023-03-13T07:06:04;99451.16;;;6.95;98.76
53647;BME280;39550;52.230;5.194;2023-03-13T07:08:30;99449.44;;;6.91;98.68
53647;BME280;39550;52.230;5.194;2023-03-13T07:10:58;99439.22;;;6.85;97.94
53647;BME280;39550;52.230;5.194;2023-03-13T07:13:23;99440.06;;;6.85;98.30
53647;BME280;39550;52.230;5.194;2023-03-13T07:15:49;99448.59;;;6.79;98.04
53647;BME280;39550;52.230;5.194;2023-03-13T07:18:15;99442.63;;;6.77;98.63
53647;BME280;39550;52.230;5.194;2023-03-13T07:20:41;99451.16;;;6.79;98.44
53647;BME280;39550;52.230;5.194;2023-03-13T07:23:06;99440.91;;;6.76;98.41
53647;BME280;39550;52.230;5.194;2023-03-13T07:25:31;99442.63;;;6.77;97.91
53647;BME280;39550;52.230;5.194;2023-03-13T07:27:57;99455.44;;;6.99;99.67
53647;BME280;39550;52.230;5.194;2023-03-13T07:30:22;99455.44;;;6.97;99.31
53647;BME280;39550;52.230;5.194;2023-03-13T07:32:47;99460.56;;;6.93;99.20
53647;BME280;39550;52.230;5.194;2023-03-13T07:35:13;99455.44;;;6.90;99.25
53647;BME280;39550;52.230;5.194;2023-03-13T07:37:39;99441.78;;;6.86;98.43
53647;BME280;39550;52.230;5.194;2023-03-13T07:40:04;99471.66;;;6.86;98.99
53647;BME280;39550;52.230;5.194;2023-03-13T07:42:30;99459.72;;;6.85;98.71
53647;BME280;39550;52.230;5.194;2023-03-13T07:44:55;99461.44;;;6.84;99.29
53647;BME280;39550;52.230;5.194;2023-03-13T07:47:20;99458.00;;;6.84;99.21
53647;BME280;39550;52.230;5.194;2023-03-13T07:49:46;99475.91;;;6.84;98.77
53647;BME280;39550;52.230;5.194;2023-03-13T07:52:11;99472.50;;;6.85;98.46
53647;BME280;39550;52.230;5.194;2023-03-13T07:54:37;99474.22;;;6.86;98.69
53647;BME280;39550;52.230;5.194;2023-03-13T07:57:02;99476.78;;;6.87;99.60
53647;BME280;39550;52.230;5.194;2023-03-13T07:59:28;99481.06;;;6.90;99.00
53647;BME280;39550;52.230;5.194;2023-03-13T08:01:53;99485.31;;;6.91;98.98
53647;BME280;39550;52.230;5.194;2023-03-13T08:04:19;99481.06;;;6.93;98.96
53647;BME280;39550;52.230;5.194;2023-03-13T08:06:44;99446.03;;;6.92;97.95
53647;BME280;39550;52.230;5.194;2023-03-13T08:09:09;99441.78;;;6.94;97.94
53647;BME280;39550;52.230;5.194;2023-03-13T08:11:37;99439.22;;;6.95;98.52
53647;BME280;39550;52.230;5.194;2023-03-13T08:14:04;99435.81;;;6.96;98.45
53647;BME280;39550;52.230;5.194;2023-03-13T08:16:32;99431.53;;;7.00;98.37
53647;BME280;39550;52.230;5.194;2023-03-13T08:18:59;99437.50;;;6.99;97.52
53647;BME280;39550;52.230;5.194;2023-03-13T08:21:30;99432.38;;;6.97;97.88
53647;BME280;39550;52.230;5.194;2023-03-13T08:23:58;99428.97;;;7.03;97.27
53647;BME280;39550;52.230;5.194;2023-03-13T08:26:26;99421.28;;;7.03;97.88
53647;BME280;39550;52.230;5.194;2023-03-13T08:28:53;99413.59;;;7.00;97.47
53647;BME280;39550;52.230;5.194;2023-03-13T08:31:24;99427.28;;;7.02;98.00
53647;BME280;39550;52.230;5.194;2023-03-13T08:33:50;99417.00;;;6.99;98.06
53647;BME280;39550;52.230;5.194;2023-03-13T08:38:47;99412.75;;;7.01;98.37
53647;BME280;39550;52.230;5.194;2023-03-13T08:41:21;99418.72;;;6.98;97.85
53647;BME280;39550;52.230;5.194;2023-03-13T08:43:47;99407.63;;;7.01;98.46
53647;BME280;39550;52.230;5.194;2023-03-13T08:46:13;99412.75;;;7.03;98.13
53647;BME280;39550;52.230;5.194;2023-03-13T08:48:39;99410.19;;;7.01;98.01
53647;BME280;39550;52.230;5.194;2023-03-13T08:51:08;99406.78;;;7.02;97.86
53647;BME280;39550;52.230;5.194;2023-03-13T08:53:35;99411.91;;;7.02;98.55
53647;BME280;39550;52.230;5.194;2023-03-13T08:56:01;99413.59;;;7.00;98.35
53647;BME280;39550;52.230;5.194;2023-03-13T08:58:26;99417.03;;;7.05;97.99
53647;BME280;39550;52.230;5.194;2023-03-13T09:00:52;99417.84;;;7.09;97.70
53647;BME280;39550;52.230;5.194;2023-03-13T09:03:18;99423.84;;;7.15;97.50
53647;BME280;39550;52.230;5.194;2023-03-13T09:05:43;99417.03;;;7.14;97.53
53647;BME280;39550;52.230;5.194;2023-03-13T09:08:10;99387.97;;;7.15;97.74
53647;BME280;39550;52.230;5.194;2023-03-13T09:10:35;99389.69;;;7.26;97.61
53647;BME280;39550;52.230;5.194;2023-03-13T09:13:01;99377.69;;;7.28;96.84
53647;BME280;39550;52.230;5.194;2023-03-13T09:15:27;99379.41;;;7.29;96.81
53647;BME280;39550;52.230;5.194;2023-03-13T09:17:53;99374.28;;;7.29;96.60
53647;BME280;39550;52.230;5.194;2023-03-13T09:20:18;99370.00;;;7.29;97.11
53647;BME280;39550;52.230;5.194;2023-03-13T09:22:44;99376.88;;;7.26;96.27
53647;BME280;39550;52.230;5.194;2023-03-13T09:25:10;99368.31;;;7.25;96.65
53647;BME280;39550;52.230;5.194;2023-03-13T09:27:35;99371.72;;;7.29;96.44
53647;BME280;39550;52.230;5.194;2023-03-13T09:30:01;99364.03;;;7.32;97.10
53647;BME280;39550;52.230;5.194;2023-03-13T09:32:26;99346.94;;;7.31;97.25
53647;BME280;39550;52.230;5.194;2023-03-13T09:34:51;99348.66;;;7.32;96.53
53647;BME280;39550;52.230;5.194;2023-03-13T09:37:17;99352.94;;;7.33;96.54
53647;BME280;39550;52.230;5.194;2023-03-13T09:39:42;99331.56;;;7.34;97.03
53647;BME280;39550;52.230;5.194;2023-03-13T09:42:16;99335.00;;;7.33;96.70
53647;BME280;39550;52.230;5.194;2023-03-13T09:45:42;99334.97;;;7.36;96.39
53647;BME280;39550;52.230;5.194;2023-03-13T09:47:46;99323.84;;;7.40;96.08
53647;BME280;39550;52.230;5.194;2023-03-13T09:50:20;99315.28;;;7.44;96.25
53647;BME280;39550;52.230;5.194;2023-03-13T09:52:50;99315.28;;;7.46;96.36
53647;BME280;39550;52.230;5.194;2023-03-13T09:55:19;99308.44;;;7.49;95.63
53647;BME280;39550;52.230;5.194;2023-03-13T09:58:12;99317.84;;;7.50;95.85
53647;BME280;39550;52.230;5.194;2023-03-13T10:00:42;99310.13;;;7.49;96.09
53647;BME280;39550;52.230;5.194;2023-03-13T10:05:37;99293.88;;;7.53;95.42
53647;BME280;39550;52.230;5.194;2023-03-13T10:08:15;99284.47;;;7.57;95.53
53647;BME280;39550;52.230;5.194;2023-03-13T10:16:08;99283.63;;;7.58;95.18
53647;BME280;39550;52.230;5.194;2023-03-13T10:18:36;99268.22;;;7.62;95.76
53647;BME280;39550;52.230;5.194;2023-03-13T10:21:18;99290.44;;;7.65;95.46
53647;BME280;39550;52.230;5.194;2023-03-13T10:23:58;99275.03;;;7.65;95.58
53647;BME280;39550;52.230;5.194;2023-03-13T10:26:28;99298.13;;;7.65;95.38
53647;BME280;39550;52.230;5.194;2023-03-13T10:28:55;99263.06;;;7.64;95.44
53647;BME280;39550;52.230;5.194;2023-03-13T10:31:24;99270.75;;;7.69;95.42
53647;BME280;39550;52.230;5.194;2023-03-13T10:33:50;99265.59;;;7.73;95.60
53647;BME280;39550;52.230;5.194;2023-03-13T10:36:18;99292.06;;;7.75;95.28
53647;BME280;39550;52.230;5.194;2023-03-13T10:38:50;99280.94;;;7.82;95.55
53647;BME280;39550;52.230;5.194;2023-03-13T10:41:29;99272.31;;;7.93;94.45
53647;BME280;39550;52.230;5.194;2023-03-13T10:44:03;99268.88;;;7.95;94.62
53647;BME280;39550;52.230;5.194;2023-03-13T10:46:34;99286.00;;;7.95;94.19
53647;BME280;39550;52.230;5.194;2023-03-13T10:49:13;99284.28;;;7.94;94.20
53647;BME280;39550;52.230;5.194;2023-03-13T10:51:39;99275.72;;;7.95;94.90
53647;BME280;39550;52.230;5.194;2023-03-13T10:56:46;99262.00;;;8.02;94.01
53647;BME280;39550;52.230;5.194;2023-03-13T10:59:25;99243.13;;;8.08;93.70
53647;BME280;39550;52.230;5.194;2023-03-13T11:01:52;99267.94;;;8.04;94.27
53647;BME280;39550;52.230;5.194;2023-03-13T11:04:32;99244.91;;;7.98;93.92
53647;BME280;39550;52.230;5.194;2023-03-13T11:07:35;99253.34;;;8.12;93.85
53647;BME280;39550;52.230;5.194;2023-03-13T11:10:20;99257.69;;;8.07;93.42
53647;BME280;39550;52.230;5.194;2023-03-13T11:12:53;99252.47;;;8.15;93.67
53647;BME280;39550;52.230;5.194;2023-03-13T11:15:33;99257.56;;;8.23;93.47
53647;BME280;39550;52.230;5.194;2023-03-13T11:18:18;99245.63;;;8.15;92.85
53647;BME280;39550;52.230;5.194;2023-03-13T11:20:48;99237.03;;;8.23;93.34
53647;BME280;39550;52.230;5.194;2023-03-13T11:23:29;99241.28;;;8.22;93.26
53647;BME280;39550;52.230;5.194;2023-03-13T11:28:53;99225.09;;;8.18;92.53
53647;BME280;39550;52.230;5.194;2023-03-13T11:31:36;99249.03;;;8.19;92.53
53647;BME280;39550;52.230;5.194;2023-03-13T11:34:07;99233.56;;;8.24;93.13
53647;BME280;39550;52.230;5.194;2023-03-13T11:39:52;99228.34;;;8.36;91.90
53647;BME280;39550;52.230;5.194;2023-03-13T11:54:01;99227.28;;;8.62;91.64
53647;BME280;39550;52.230;5.194;2023-03-13T11:56:42;99234.06;;;8.67;91.30
53647;BME280;39550;52.230;5.194;2023-03-13T11:59:37;99233.22;;;8.64;91.05
53647;BME280;39550;52.230;5.194;2023-03-13T12:04:43;99217.69;;;8.76;90.25
53647;BME280;39550;52.230;5.194;2023-03-13T12:07:27;99222.03;;;8.74;90.92
53647;BME280;39550;52.230;5.194;2023-03-13T12:09:59;99219.44;;;8.74;90.31
53647;BME280;39550;52.230;5.194;2023-03-13T12:12:52;99210.78;;;8.83;89.85
53647;BME280;39550;52.230;5.194;2023-03-13T12:15:39;99215.13;;;8.79;90.07
53647;BME280;39550;52.230;5.194;2023-03-13T12:26:15;99198.47;;;9.11;87.72
53647;BME280;39550;52.230;5.194;2023-03-13T12:31:28;99184.00;;;9.02;88.01
53647;BME280;39550;52.230;5.194;2023-03-13T12:34:08;99203.72;;;9.02;88.87
53647;BME280;39550;52.230;5.194;2023-03-13T12:36:45;99197.75;;;9.01;88.71
53647;BME280;39550;52.230;5.194;2023-03-13T12:44:50;99188.34;;;8.99;89.04
53647;BME280;39550;52.230;5.194;2023-03-13T12:47:22;99213.28;;;8.91;89.09
53647;BME280;39550;52.230;5.194;2023-03-13T13:00:36;99185.19;;;9.42;86.64
53647;BME280;39550;52.230;5.194;2023-03-13T13:06:01;99163.28;;;9.74;86.13
53647;BME280;39550;52.230;5.194;2023-03-13T13:08:33;99155.41;;;9.85;84.55
53647;BME280;39550;52.230;5.194;2023-03-13T13:17:13;99142.56;;;9.85;84.05
53647;BME280;39550;52.230;5.194;2023-03-13T13:32:46;99139.69;;;10.50;81.24
53647;BME280;39550;52.230;5.194;2023-03-13T13:35:33;99150.06;;;10.47;82.00
53647;BME280;39550;52.230;5.194;2023-03-13T13:41:20;99138.31;;;10.31;82.41
53647;BME280;39550;52.230;5.194;2023-03-13T13:43:48;99139.16;;;10.34;82.20
53647;BME280;39550;52.230;5.194;2023-03-13T13:46:30;99144.59;;;10.63;80.67
53647;BME280;39550;52.230;5.194;2023-03-13T13:51:35;99153.81;;;10.28;82.39
53647;BME280;39550;52.230;5.194;2023-03-13T13:54:02;99145.06;;;10.38;83.10
53647;BME280;39550;52.230;5.194;2023-03-13T13:58:58;99162.63;;;10.14;82.75
53647;BME280;39550;52.230;5.194;2023-03-13T14:01:24;99158.91;;;10.31;80.96
53647;BME280;39550;52.230;5.194;2023-03-13T14:03:50;99151.09;;;10.82;79.44
53647;BME280;39550;52.230;5.194;2023-03-13T14:06:20;99148.56;;;10.34;80.45
53647;BME280;39550;52.230;5.194;2023-03-13T14:08:50;99145.06;;;10.38;80.92
53647;BME280;39550;52.230;5.194;2023-03-13T14:11:27;99144.50;;;10.67;79.56
53647;BME280;39550;52.230;5.194;2023-03-13T14:14:16;99133.31;;;10.68;80.25
53647;BME280;39550;52.230;5.194;2023-03-13T14:16:48;99133.91;;;10.81;79.90
53647;BME280;39550;52.230;5.194;2023-03-13T14:19:29;99141.19;;;11.04;79.38
53647;BME280;39550;52.230;5.194;2023-03-13T14:24:24;99116.72;;;11.22;78.40
53647;BME280;39550;52.230;5.194;2023-03-13T14:26:50;99114.97;;;11.24;77.57
53647;BME280;39550;52.230;5.194;2023-03-13T14:29:17;99100.28;;;11.27;77.72
53647;BME280;39550;52.230;5.194;2023-03-13T14:31:53;99120.88;;;11.28;76.18
53647;BME280;39550;52.230;5.194;2023-03-13T14:34:19;99107.81;;;11.36;76.47
53647;BME280;39550;52.230;5.194;2023-03-13T14:42:03;99104.97;;;11.48;76.35
53647;BME280;39550;52.230;5.194;2023-03-13T14:44:30;99095.97;;;11.65;75.92
53647;BME280;39550;52.230;5.194;2023-03-13T14:46:58;99101.56;;;11.46;75.82
53647;BME280;39550;52.230;5.194;2023-03-13T14:49:27;99106.63;;;11.13;77.79
53647;BME280;39550;52.230;5.194;2023-03-13T14:52:05;99103.34;;;11.44;77.06
53647;BME280;39550;52.230;5.194;2023-03-13T14:54:34;99096.19;;;10.80;78.01
53647;BME280;39550;52.230;5.194;2023-03-13T14:57:12;99107.22;;;10.43;81.00
53647;BME280;39550;52.230;5.194;2023-03-13T14:59:38;99102.56;;;10.15;82.27
53647;BME280;39550;52.230;5.194;2023-03-13T15:02:26;99094.28;;;9.98;83.58
53647;BME280;39550;52.230;5.194;2023-03-13T15:04:59;99092.78;;;9.87;83.82
53647;BME280;39550;52.230;5.194;2023-03-13T15:07:35;99103.22;;;9.78;84.53
53647;BME280;39550;52.230;5.194;2023-03-13T15:10:16;99085.13;;;9.81;84.19
53647;BME280;39550;52.230;5.194;2023-03-13T15:12:43;99089.34;;;9.85;84.01